Time;durP1;ratioP1;P1;durP2;ratioP2;P2;SDS_P1;SDS_P2;PMS_P1;PMS_P2;Temp;Humidity;BMP_temperature;BMP_pressure;BME280_temperature;BME280_humidity;BME280_pressure;Samples;Min_cycle;Max_cycle;Signal;HPM_P1;HPM_P2
2022/01/30 00:02:29;;;;;;;3.00;0.97;;;6.90;99.90;6.80;100054.00;;;;4993631;27;92927;-69
2022/01/30 00:04:55;;;;;;;7.13;1.50;;;6.90;99.90;6.80;100045.00;;;;4974418;28;92787;-69
2022/01/30 00:07:20;;;;;;;2.47;1.30;;;6.80;99.90;6.80;100068.00;;;;4991215;28;99660;-70
2022/01/30 00:09:48;;;;;;;3.60;1.47;;;6.80;99.90;6.80;100069.00;;;;5001130;27;93884;-70
2022/01/30 00:12:16;;;;;;;3.53;1.67;;;6.80;99.90;6.70;100069.00;;;;5011921;27;93009;-70
2022/01/30 00:14:42;;;;;;;4.20;1.23;;;6.80;99.90;6.70;100052.00;;;;5013358;27;93173;-70
2022/01/30 00:17:15;;;;;;;2.30;0.70;;;6.80;99.90;6.60;100066.00;;;;5010038;27;124180;-70
2022/01/30 00:19:46;;;;;;;6.23;1.40;;;6.70;99.90;6.60;100078.00;;;;5011856;27;94801;-70
2022/01/30 00:25:01;;;;;;;3.47;1.03;;;6.60;99.90;6.40;100082.00;;;;5009551;27;92798;-70
2022/01/30 00:27:31;;;;;;;4.63;1.30;;;6.60;99.90;6.40;100073.00;;;;4993259;27;92960;-70
2022/01/30 00:29:56;;;;;;;2.37;1.23;;;6.50;99.90;6.40;100067.00;;;;4999231;27;92830;-71
2022/01/30 00:32:22;;;;;;;6.53;1.43;;;6.50;99.90;6.30;100052.00;;;;4973410;28;93310;-70
2022/01/30 00:34:48;;;;;;;6.83;1.27;;;6.50;99.90;6.30;100088.00;;;;4989485;28;107779;-69
2022/01/30 00:37:14;;;;;;;5.43;1.30;;;6.50;99.90;6.30;100089.00;;;;4997691;27;113794;-69
2022/01/30 00:39:40;;;;;;;3.57;1.20;;;6.40;99.90;6.30;100080.00;;;;5003834;27;92935;-72
2022/01/30 00:42:06;;;;;;;2.83;1.53;;;6.40;99.90;6.30;100082.00;;;;5013860;27;93949;-71
2022/01/30 00:44:32;;;;;;;5.40;1.20;;;6.40;99.90;6.20;100074.00;;;;5015111;27;95338;-68
2022/01/30 00:46:58;;;;;;;3.33;1.37;;;6.30;99.90;6.20;100082.00;;;;5014446;27;98123;-70
2022/01/30 00:49:25;;;;;;;3.53;1.10;;;6.30;99.90;6.10;100058.00;;;;4996632;27;92741;-69
2022/01/30 00:51:51;;;;;;;5.47;1.30;;;6.30;99.90;6.10;100077.00;;;;5014623;27;109729;-70
2022/01/30 00:54:17;;;;;;;4.20;2.00;;;6.20;99.90;6.10;100052.00;;;;5014577;27;105247;-69
2022/01/30 00:56:42;;;;;;;2.03;1.03;;;6.20;99.90;6.10;100044.00;;;;5014439;27;113343;-69
2022/01/30 00:59:08;;;;;;;3.00;0.90;;;6.20;99.90;6.00;100075.00;;;;4995183;27;112266;-70
2022/01/30 01:01:34;;;;;;;7.37;1.60;;;6.20;99.90;6.00;100068.00;;;;4994188;27;103613;-70
2022/01/30 01:03:59;;;;;;;8.13;1.53;;;6.20;99.90;6.00;100077.00;;;;4995066;28;92783;-70
2022/01/30 01:06:25;;;;;;;4.13;1.10;;;6.10;99.90;5.90;100054.00;;;;4993597;28;124189;-70
2022/01/30 01:08:57;;;;;;;4.23;1.53;;;6.10;99.90;5.90;100045.00;;;;4993738;28;112224;-70
2022/01/30 01:14:14;;;;;;;6.23;1.53;;;6.00;99.90;5.90;100057.00;;;;4993740;27;92725;-70
2022/01/30 01:24:52;;;;;;;1.60;1.17;;;6.00;99.90;5.80;100047.00;;;;4992689;28;92168;-71
2022/01/30 01:27:18;;;;;;;5.43;1.10;;;6.00;99.90;5.80;100028.00;;;;4975084;28;120934;-70
2022/01/30 01:29:43;;;;;;;7.27;1.77;;;5.90;99.90;5.80;100052.00;;;;4994712;28;100638;-70
2022/01/30 01:32:09;;;;;;;2.40;0.80;;;5.90;99.90;5.70;100028.00;;;;4993426;28;110359;-70
2022/01/30 01:34:38;;;;;;;4.67;2.23;;;5.90;99.90;5.70;100038.00;;;;4995198;27;92953;-70
2022/01/30 01:37:07;;;;;;;5.37;1.73;;;5.80;99.90;5.70;100030.00;;;;4994151;28;93443;-70
2022/01/30 01:39:33;;;;;;;7.80;1.90;;;5.90;99.90;5.80;100035.00;;;;4995129;27;94126;-70
2022/01/30 01:41:58;;;;;;;5.17;1.10;;;5.90;99.90;5.90;100036.00;;;;5013758;27;97706;-69
2022/01/30 01:44:40;;;;;;;5.67;1.23;;;5.90;99.90;5.90;100025.00;;;;5014099;27;109052;-70
2022/01/30 01:47:09;;;;;;;5.47;0.83;;;6.00;99.90;6.00;100031.00;;;;4996847;27;94971;-70
2022/01/30 01:49:35;;;;;;;4.30;1.53;;;6.00;99.90;6.00;100044.00;;;;5014939;27;92082;-70
2022/01/30 01:54:53;;;;;;;3.37;1.47;;;6.20;99.90;6.10;100031.00;;;;5004001;27;92972;-70
2022/01/30 01:57:20;;;;;;;4.53;1.03;;;6.20;99.90;6.10;100038.00;;;;4993416;28;94322;-70
2022/01/30 01:59:47;;;;;;;1.50;1.10;;;6.20;99.90;6.20;100024.00;;;;4993831;27;93864;-70
2022/01/30 02:02:13;;;;;;;10.63;1.83;;;6.10;99.90;6.20;100037.00;;;;4994206;27;93029;-70
2022/01/30 02:04:41;;;;;;;9.30;2.20;;;6.30;99.90;6.20;100024.00;;;;4994914;28;94653;-70
2022/01/30 02:09:45;;;;;;;1.60;1.13;;;6.30;99.90;6.20;100045.00;;;;4991511;28;92967;-70
2022/01/30 02:12:17;;;;;;;3.13;1.30;;;6.30;99.90;6.20;100068.00;;;;4993803;28;92658;-70
2022/01/30 02:15:10;;;;;;;5.97;1.70;;;6.30;99.90;6.30;100055.00;;;;4994598;28;91935;-70
2022/01/30 02:25:57;;;;;;;8.47;1.77;;;6.40;99.90;6.30;100008.00;;;;5011040;27;92761;-72
2022/01/30 02:28:24;;;;;;;1.57;0.70;;;6.40;99.90;6.30;100057.00;;;;5013483;27;93166;-72
2022/01/30 02:31:02;;;;;;;10.47;1.10;;;6.40;99.90;6.20;100065.00;;;;5013245;27;93521;-71
2022/01/30 02:33:27;;;;;;;3.40;1.13;;;6.40;99.90;6.10;100038.00;;;;5013620;27;92729;-72
2022/01/30 02:35:53;;;;;;;3.23;1.10;;;6.30;99.90;6.00;100065.00;;;;5012184;27;94504;-72
2022/01/30 02:38:26;;;;;;;4.40;1.03;;;6.20;99.90;6.00;100059.00;;;;5012889;27;100429;-71
2022/01/30 02:40:55;;;;;;;5.60;1.00;;;6.10;99.90;5.90;100052.00;;;;4995223;27;92667;-71
2022/01/30 02:43:26;;;;;;;5.60;1.20;;;6.10;99.90;5.90;100043.00;;;;4978416;27;92633;-72
2022/01/30 02:46:05;;;;;;;1.27;0.67;;;5.90;99.90;5.90;100068.00;;;;4996551;27;93140;-72
2022/01/30 02:48:53;;;;;;;7.00;1.33;;;5.50;99.90;5.80;100031.00;;;;4996017;27;94289;-72
2022/01/30 02:51:22;;;;;;;7.50;1.37;;;5.90;99.90;5.80;100030.00;;;;4990488;28;94114;-70
2022/01/30 02:53:57;;;;;;;3.37;1.53;;;5.90;99.90;5.90;100018.00;;;;4974765;28;92815;-72
2022/01/30 02:56:22;;;;;;;7.67;1.70;;;6.00;99.90;5.90;100024.00;;;;4993337;28;92793;-72
2022/01/30 02:58:48;;;;;;;7.63;1.57;;;6.00;99.90;5.90;100021.00;;;;4973706;28;93212;-71
2022/01/30 03:01:14;;;;;;;7.30;1.10;;;6.00;99.90;5.90;100016.00;;;;4992484;28;122646;-71
2022/01/30 03:03:40;;;;;;;8.80;1.57;;;6.00;99.90;6.00;100035.00;;;;4996251;27;111595;-71
2022/01/30 03:06:05;;;;;;;4.40;1.47;;;6.00;99.90;6.00;100016.00;;;;4994611;27;107950;-71
2022/01/30 03:08:31;;;;;;;2.07;1.13;;;6.00;99.90;6.00;100009.00;;;;5012073;27;115299;-71
2022/01/30 03:10:57;;;;;;;5.67;1.53;;;6.10;99.90;6.00;100013.00;;;;5012185;27;124034;-71
2022/01/30 03:13:22;;;;;;;2.10;1.20;;;6.10;99.90;6.00;100033.00;;;;5011062;27;111691;-71
2022/01/30 03:15:48;;;;;;;1.27;1.17;;;6.10;99.90;6.10;100026.00;;;;5012528;27;109582;-71
2022/01/30 03:18:14;;;;;;;9.20;1.27;;;6.20;99.90;6.10;100032.00;;;;5011175;27;122725;-72
2022/01/30 03:20:41;;;;;;;3.50;1.47;;;6.20;99.90;6.10;100050.00;;;;4992663;27;121973;-72
2022/01/30 03:23:07;;;;;;;8.27;1.53;;;6.30;99.90;6.10;100047.00;;;;4992991;27;93073;-71
2022/01/30 03:25:33;;;;;;;2.27;1.03;;;6.20;99.90;6.00;100048.00;;;;4974228;28;93050;-72
2022/01/30 03:28:01;;;;;;;4.27;1.10;;;6.10;99.90;6.00;100078.00;;;;4992216;28;94239;-71
2022/01/30 03:30:30;;;;;;;9.00;1.77;;;6.10;99.90;5.90;100052.00;;;;4974722;28;92995;-70
2022/01/30 03:32:56;;;;;;;3.63;1.53;;;6.10;99.90;6.00;100090.00;;;;4991997;28;92944;-71
2022/01/30 03:35:22;;;;;;;1.83;1.03;;;6.10;99.90;6.00;100033.00;;;;4992904;28;92769;-71
2022/01/30 03:37:48;;;;;;;4.40;1.30;;;6.10;99.90;6.00;100058.00;;;;4990780;27;100729;-72
2022/01/30 03:40:13;;;;;;;5.70;1.40;;;6.10;99.90;6.00;100035.00;;;;4992915;28;107428;-71
2022/01/30 03:42:39;;;;;;;4.83;1.43;;;6.10;99.90;6.00;100041.00;;;;4973725;28;93054;-71
2022/01/30 03:45:06;;;;;;;5.80;1.40;;;6.10;99.90;5.90;100044.00;;;;4973381;28;107451;-71
2022/01/30 03:47:31;;;;;;;4.27;1.03;;;6.00;99.90;5.90;100024.00;;;;4991972;27;95856;-71
2022/01/30 03:49:57;;;;;;;2.10;1.40;;;6.00;99.90;5.80;100040.00;;;;4991726;28;121794;-71
2022/01/30 03:52:23;;;;;;;2.20;0.83;;;6.00;99.90;5.80;100037.00;;;;4991955;28;110814;-73
2022/01/30 03:54:48;;;;;;;3.30;1.23;;;6.20;99.90;5.80;100031.00;;;;4992345;28;103745;-71
2022/01/30 03:57:14;;;;;;;7.80;1.20;;;6.00;99.90;5.90;100044.00;;;;4994572;27;93092;-71
2022/01/30 03:59:40;;;;;;;1.83;0.87;;;6.00;99.90;5.90;100051.00;;;;5010928;27;122164;-71
2022/01/30 04:02:06;;;;;;;2.47;1.10;;;6.00;99.90;5.90;100034.00;;;;5010761;27;110817;-71
2022/01/30 04:04:33;;;;;;;3.73;1.40;;;6.00;99.90;5.90;100033.00;;;;5011750;27;93030;-71
2022/01/30 04:06:59;;;;;;;10.50;1.53;;;6.00;99.90;5.90;100043.00;;;;5011182;27;94146;-71
2022/01/30 04:09:28;;;;;;;4.07;0.90;;;6.10;99.90;5.90;100041.00;;;;5011991;27;100528;-70
2022/01/30 04:11:55;;;;;;;6.97;1.07;;;6.10;99.90;5.90;100027.00;;;;5011570;27;95640;-71
2022/01/30 04:14:21;;;;;;;6.20;1.47;;;6.00;99.90;5.90;100014.00;;;;4993725;27;92969;-73
2022/01/30 04:16:47;;;;;;;7.80;1.77;;;6.00;99.90;5.90;100001.00;;;;4990544;28;93265;-70
2022/01/30 04:19:13;;;;;;;4.10;1.73;;;6.00;99.90;5.90;100001.00;;;;4994654;28;106288;-71
2022/01/30 04:21:39;;;;;;;3.87;1.63;;;6.00;99.90;5.90;100020.00;;;;4995564;28;93031;-70
2022/01/30 04:24:06;;;;;;;3.17;1.67;;;7.00;99.90;5.90;100014.00;;;;4995759;28;92780;-71
2022/01/30 04:26:32;;;;;;;1.60;0.83;;;6.00;99.90;5.90;100033.00;;;;4975131;28;109522;-71
2022/01/30 04:28:58;;;;;;;3.03;1.13;;;6.00;99.90;5.90;100002.00;;;;5014568;27;110352;-71
2022/01/30 04:31:24;;;;;;;1.43;1.20;;;6.00;99.90;5.90;99999.00;;;;4997156;27;93564;-71
2022/01/30 04:33:50;;;;;;;3.77;1.30;;;6.00;99.90;5.90;100008.00;;;;4997617;27;93095;-72
2022/01/30 04:36:23;;;;;;;2.60;0.90;;;6.00;99.90;5.90;100022.00;;;;4996668;27;94771;-70
2022/01/30 04:39:02;;;;;;;7.97;1.60;;;6.00;99.90;5.80;100010.00;;;;4979563;28;92958;-71
2022/01/30 04:41:55;;;;;;;10.73;2.43;;;6.00;99.90;5.80;100010.00;;;;4995818;28;92898;-70
2022/01/30 04:52:50;;;;;;;2.67;1.13;;;5.90;99.90;5.70;99998.00;;;;4993733;28;93813;-70
2022/01/30 04:58:23;;;;;;;4.70;1.47;;;5.80;99.90;5.70;100038.00;;;;4993914;27;93068;-70
2022/01/30 05:01:10;;;;;;;9.03;1.50;;;5.80;99.90;5.70;100000.00;;;;4995181;28;93704;-71
2022/01/30 05:03:59;;;;;;;2.87;1.23;;;5.80;99.90;5.70;100011.00;;;;4995781;27;93103;-71
2022/01/30 05:06:52;;;;;;;2.40;1.40;;;5.80;99.90;5.80;100018.00;;;;4995750;28;92901;-71
2022/01/30 05:09:17;;;;;;;5.77;1.57;;;5.90;99.90;5.80;100010.00;;;;4994265;28;93505;-70
2022/01/30 05:11:42;;;;;;;3.57;1.27;;;5.90;99.90;5.80;100021.00;;;;4995951;27;93986;-72
2022/01/30 05:14:09;;;;;;;6.70;1.23;;;5.90;99.90;5.80;99994.00;;;;4995922;27;92867;-70
2022/01/30 05:16:35;;;;;;;7.53;1.60;;;5.90;99.90;5.80;100028.00;;;;5015425;27;92859;-71
2022/01/30 05:19:01;;;;;;;3.10;1.17;;;5.90;99.90;5.80;100035.00;;;;5013563;27;95154;-71
2022/01/30 05:21:27;;;;;;;5.57;1.77;;;6.00;99.90;5.90;100042.00;;;;5014525;27;106730;-71
2022/01/30 05:23:53;;;;;;;4.30;1.47;;;6.00;99.10;6.00;100046.00;;;;5014390;27;94757;-70
2022/01/30 05:26:22;;;;;;;11.60;2.10;;;6.00;99.00;6.00;100045.00;;;;5014655;27;93066;-71
2022/01/30 05:28:48;;;;;;;8.03;2.00;;;6.10;98.80;6.00;100040.00;;;;5012733;27;94284;-70
2022/01/30 05:31:14;;;;;;;2.07;0.83;;;6.10;99.90;6.00;100066.00;;;;5014943;27;94194;-71
2022/01/30 05:33:39;;;;;;;1.53;0.93;;;6.10;99.60;6.00;100065.00;;;;5014999;27;92863;-70
2022/01/30 05:36:07;;;;;;;2.07;1.17;;;6.20;99.80;6.00;100068.00;;;;5015231;27;92400;-71
2022/01/30 05:38:33;;;;;;;6.77;1.23;;;6.20;99.90;6.00;100073.00;;;;5014467;27;93261;-71
2022/01/30 05:40:59;;;;;;;3.47;1.13;;;6.10;99.90;6.00;100087.00;;;;5004306;27;105634;-71
2022/01/30 05:43:28;;;;;;;2.30;0.90;;;6.50;99.90;6.00;100088.00;;;;4993810;28;95155;-71
2022/01/30 05:46:06;;;;;;;4.13;1.20;;;6.10;99.50;6.00;100085.00;;;;4995153;28;92692;-70
2022/01/30 05:48:32;;;;;;;4.60;1.40;;;6.10;99.90;6.00;100091.00;;;;4974303;28;95781;-70
2022/01/30 05:50:58;;;;;;;7.03;1.20;;;6.10;99.70;6.00;100083.00;;;;4994165;28;104900;-70
2022/01/30 05:53:24;;;;;;;4.43;1.27;;;5.50;98.80;6.00;100063.00;;;;4994222;28;92937;-70
2022/01/30 05:55:51;;;;;;;6.70;1.50;;;6.20;99.30;6.00;100057.00;;;;5010156;27;92802;-69
2022/01/30 05:58:17;;;;;;;4.93;1.53;;;6.10;99.40;6.00;100065.00;;;;4994918;27;93555;-69
2022/01/30 06:00:42;;;;;;;6.47;1.67;;;6.10;99.80;6.00;100076.00;;;;5014408;27;93847;-70
2022/01/30 06:03:08;;;;;;;8.13;1.43;;;6.10;99.30;6.00;100052.00;;;;5013277;27;111172;-72
2022/01/30 06:05:34;;;;;;;8.67;1.63;;;6.10;99.10;6.00;100077.00;;;;5013645;27;108839;-70
2022/01/30 06:08:09;;;;;;;8.73;1.30;;;6.10;99.40;6.00;100062.00;;;;5012492;27;94994;-71
2022/01/30 06:10:35;;;;;;;4.63;0.97;;;6.10;99.20;6.00;100069.00;;;;4991946;28;96427;-71
2022/01/30 06:13:01;;;;;;;11.13;2.47;;;6.10;99.00;6.00;100070.00;;;;4993733;28;92807;-71
2022/01/30 06:15:27;;;;;;;4.87;1.63;;;6.10;97.90;6.00;100066.00;;;;4993493;28;108260;-71
2022/01/30 06:17:52;;;;;;;3.70;1.90;;;6.50;97.00;6.00;100083.00;;;;4992568;28;111989;-71
2022/01/30 06:20:18;;;;;;;5.80;1.93;;;6.10;97.20;6.00;100077.00;;;;4974264;28;121950;-71
2022/01/30 06:22:44;;;;;;;6.50;1.70;;;6.10;97.50;5.90;100080.00;;;;4994182;27;93088;-71
2022/01/30 06:25:10;;;;;;;6.13;1.57;;;6.10;97.30;5.90;100077.00;;;;4993908;28;108824;-71
2022/01/30 06:27:36;;;;;;;4.27;1.33;;;6.10;97.50;5.90;100076.00;;;;4974113;28;93166;-70
2022/01/30 06:30:05;;;;;;;6.47;1.63;;;6.10;98.20;5.90;100055.00;;;;5002427;27;93204;-71
2022/01/30 06:32:31;;;;;;;2.90;1.23;;;6.00;98.60;5.90;100076.00;;;;5013607;27;94022;-71
2022/01/30 06:34:56;;;;;;;10.10;1.40;;;6.00;98.90;5.90;100067.00;;;;5014629;27;92911;-71
2022/01/30 06:37:22;;;;;;;8.97;2.00;;;6.00;99.10;5.90;100059.00;;;;5004257;27;122721;-72
2022/01/30 06:39:48;;;;;;;4.97;1.00;;;6.00;98.60;5.80;100054.00;;;;4992348;28;92798;-71
2022/01/30 06:42:14;;;;;;;2.30;1.30;;;6.00;98.60;5.80;100061.00;;;;4992626;28;110839;-71
2022/01/30 06:44:40;;;;;;;8.27;1.67;;;6.00;98.50;5.90;100074.00;;;;5002956;27;92853;-71
2022/01/30 06:47:06;;;;;;;6.67;1.80;;;6.00;98.60;5.90;100076.00;;;;5013586;27;93443;-72
2022/01/30 06:49:31;;;;;;;8.03;1.90;;;6.00;98.70;5.90;100063.00;;;;5013831;27;92622;-71
2022/01/30 06:51:57;;;;;;;5.40;1.90;;;6.00;99.00;5.90;100088.00;;;;5012792;27;110720;-71
2022/01/30 06:54:23;;;;;;;5.53;1.93;;;6.00;98.80;5.90;100099.00;;;;4976328;27;108319;-71
2022/01/30 06:56:48;;;;;;;7.07;1.60;;;6.00;98.90;5.90;100121.00;;;;5011462;27;123800;-71
2022/01/30 06:59:14;;;;;;;6.07;1.73;;;6.00;98.40;5.90;100131.00;;;;5012127;27;124115;-70
2022/01/30 07:01:40;;;;;;;1.10;1.00;;;5.90;98.60;5.90;100119.00;;;;5013907;27;92926;-70
2022/01/30 07:04:06;;;;;;;6.53;1.33;;;6.00;98.60;5.90;100134.00;;;;5012236;27;109355;-69
2022/01/30 07:06:32;;;;;;;3.83;0.77;;;6.00;98.80;5.90;100155.00;;;;4998187;27;93334;-70
2022/01/30 07:08:57;;;;;;;12.80;1.90;;;6.00;98.20;5.90;100146.00;;;;4991547;28;114056;-70
2022/01/30 07:11:23;;;;;;;2.43;1.17;;;6.00;97.50;5.90;100150.00;;;;4992332;28;109910;-70
2022/01/30 07:13:49;;;;;;;6.03;1.00;;;6.00;97.50;5.90;100155.00;;;;4990906;28;109157;-70
2022/01/30 07:16:15;;;;;;;8.27;1.30;;;6.00;97.60;6.00;100119.00;;;;4976765;27;121782;-70
2022/01/30 07:18:42;;;;;;;4.27;1.27;;;6.00;97.90;6.00;100160.00;;;;5008603;27;93948;-70
2022/01/30 07:21:09;;;;;;;5.90;1.57;;;6.10;97.10;5.90;100166.00;;;;5003544;27;95071;-70
2022/01/30 07:23:36;;;;;;;5.03;1.30;;;6.00;97.70;5.90;100172.00;;;;4998241;27;92760;-70
2022/01/30 07:26:03;;;;;;;3.67;1.23;;;6.00;98.30;5.90;100174.00;;;;5001281;27;93165;-71
2022/01/30 07:28:29;;;;;;;10.47;1.50;;;6.10;98.10;5.90;100175.00;;;;4998435;27;106714;-70
2022/01/30 07:30:55;;;;;;;5.90;1.60;;;6.00;97.90;5.90;100158.00;;;;5009868;27;92739;-70
2022/01/30 07:33:21;;;;;;;3.40;1.23;;;6.00;98.70;5.90;100152.00;;;;5005612;27;93075;-70
2022/01/30 07:35:47;;;;;;;5.47;1.07;;;6.00;97.90;5.90;100162.00;;;;5003712;27;111959;-71
2022/01/30 07:38:13;;;;;;;6.53;1.43;;;6.00;98.50;5.80;100163.00;;;;5004097;27;93925;-70
2022/01/30 07:40:39;;;;;;;3.07;0.90;;;6.00;98.00;5.90;100172.00;;;;5003874;27;92695;-70
2022/01/30 07:43:05;;;;;;;5.67;1.80;;;6.00;98.40;5.90;100173.00;;;;5008647;27;98645;-70
2022/01/30 07:45:30;;;;;;;5.40;1.80;;;6.00;99.10;5.90;100158.00;;;;5008783;27;95086;-71
2022/01/30 07:47:56;;;;;;;6.63;2.17;;;6.00;99.10;5.80;100147.00;;;;5007644;27;123483;-71
2022/01/30 07:50:22;;;;;;;5.17;1.50;;;5.90;99.00;5.80;100121.00;;;;5000631;27;105145;-70
2022/01/30 07:52:47;;;;;;;4.63;1.33;;;5.90;99.60;5.80;100101.00;;;;4979812;27;109031;-70
2022/01/30 07:55:13;;;;;;;11.23;2.10;;;6.00;99.20;5.80;100117.00;;;;4997898;27;93385;-70
2022/01/30 07:57:39;;;;;;;3.53;1.07;;;6.00;98.90;5.90;100117.00;;;;5008315;27;95338;-71
2022/01/30 08:00:06;;;;;;;5.23;2.17;;;6.00;98.40;6.00;100076.00;;;;4994077;27;93099;-71
2022/01/30 08:02:32;;;;;;;5.97;1.97;;;6.00;98.30;5.90;100124.00;;;;4986603;27;92197;-71
2022/01/30 08:04:58;;;;;;;5.80;2.23;;;6.00;97.90;5.90;100065.00;;;;4995774;27;122151;-72
2022/01/30 08:07:26;;;;;;;4.57;2.17;;;6.00;97.30;6.00;100066.00;;;;5008307;27;92887;-70
2022/01/30 08:09:51;;;;;;;2.67;1.70;;;6.10;96.60;6.10;100054.00;;;;5008691;27;93899;-71
2022/01/30 08:12:19;;;;;;;4.90;1.87;;;6.20;96.00;6.30;100076.00;;;;5002780;27;108780;-71
2022/01/30 08:14:45;;;;;;;9.60;1.87;;;6.30;95.30;6.30;100061.00;;;;5004840;27;93140;-71
2022/01/30 08:17:18;;;;;;;7.13;1.80;;;6.30;94.70;6.30;100078.00;;;;5004983;27;113880;-70
2022/01/30 08:19:45;;;;;;;4.47;1.80;;;7.30;94.60;6.40;100057.00;;;;5009313;27;93001;-71
2022/01/30 08:22:11;;;;;;;16.73;2.13;;;6.50;94.00;6.50;100108.00;;;;5008795;27;92941;-71
2022/01/30 08:24:38;;;;;;;6.73;1.80;;;6.60;93.90;6.60;100094.00;;;;4989183;27;122449;-71
2022/01/30 08:27:05;;;;;;;4.30;1.53;;;6.70;93.60;6.60;100027.00;;;;5008912;27;92494;-71
2022/01/30 08:29:31;;;;;;;10.30;2.27;;;6.70;93.10;6.50;100132.00;;;;5009171;27;92615;-71
2022/01/30 08:31:58;;;;;;;4.33;1.80;;;6.70;92.20;6.50;100134.00;;;;5007604;27;109836;-71
2022/01/30 08:34:24;;;;;;;9.10;2.00;;;6.60;92.40;6.50;100135.00;;;;4989718;27;94340;-71
2022/01/30 08:36:50;;;;;;;5.17;2.13;;;6.50;92.00;6.40;100165.00;;;;5008287;27;96705;-71
2022/01/30 08:39:16;;;;;;;9.47;1.80;;;6.50;91.90;6.40;100185.00;;;;5008314;27;92890;-71
2022/01/30 08:41:42;;;;;;;8.57;2.30;;;6.50;92.10;6.40;100193.00;;;;5008339;27;92911;-70
2022/01/30 08:44:08;;;;;;;9.13;1.77;;;6.50;92.60;6.50;100209.00;;;;5008618;27;93454;-70
2022/01/30 08:46:34;;;;;;;9.97;2.37;;;6.50;92.60;6.50;100195.00;;;;5007397;27;122508;-70
2022/01/30 08:48:59;;;;;;;8.30;2.47;;;6.50;92.60;6.50;100227.00;;;;5008965;27;92956;-71
2022/01/30 08:51:25;;;;;;;4.60;2.40;;;6.60;92.30;6.50;100238.00;;;;5008965;27;92069;-71
2022/01/30 08:53:51;;;;;;;9.23;2.63;;;6.60;92.10;6.50;100193.00;;;;5008604;27;93146;-72
2022/01/30 08:56:18;;;;;;;7.60;2.07;;;6.60;91.60;6.40;100229.00;;;;4989315;27;109105;-72
2022/01/30 08:58:44;;;;;;;9.77;2.00;;;6.50;92.00;6.40;100232.00;;;;5007722;27;93943;-71
2022/01/30 09:01:12;;;;;;;5.27;1.93;;;7.20;91.90;6.40;100244.00;;;;5008745;27;92904;-71
2022/01/30 09:03:38;;;;;;;9.73;2.63;;;6.50;91.90;6.40;100260.00;;;;5011196;27;94099;-71
2022/01/30 09:06:03;;;;;;;5.60;1.93;;;6.50;90.80;6.40;100257.00;;;;5011283;27;93851;-72
2022/01/30 09:08:30;;;;;;;4.73;1.50;;;6.50;91.20;6.40;100257.00;;;;4991559;27;109066;-70
2022/01/30 09:10:57;;;;;;;11.53;2.73;;;6.60;91.50;6.40;100259.00;;;;5011862;27;92935;-71
2022/01/30 09:13:24;;;;;;;3.23;1.73;;;6.50;91.40;6.40;100274.00;;;;4992782;27;93853;-71
2022/01/30 09:15:56;;;;;;;9.43;2.00;;;6.50;91.00;6.40;100296.00;;;;5011211;27;94134;-72
2022/01/30 09:18:22;;;;;;;17.70;2.73;;;6.50;90.90;6.40;100282.00;;;;5011436;27;92947;-71
2022/01/30 09:20:48;;;;;;;5.80;2.10;;;6.50;91.20;6.40;100275.00;;;;4993224;27;92714;-72
2022/01/30 09:23:14;;;;;;;4.93;1.73;;;6.50;90.90;6.40;100308.00;;;;5010856;27;95247;-71
2022/01/30 09:25:40;;;;;;;7.57;3.00;;;6.60;90.90;6.40;100326.00;;;;5001893;27;123625;-71
2022/01/30 09:28:06;;;;;;;7.33;2.30;;;6.50;91.10;6.40;100309.00;;;;5011182;27;92728;-71
2022/01/30 09:30:33;;;;;;;7.07;1.97;;;6.60;91.30;6.30;100306.00;;;;5010953;27;108889;-71
2022/01/30 09:32:59;;;;;;;4.07;1.90;;;6.50;90.90;6.40;100323.00;;;;5010810;27;103081;-71
2022/01/30 09:35:24;;;;;;;12.83;3.13;;;6.50;91.10;6.40;100332.00;;;;5010211;27;123423;-71
2022/01/30 09:37:50;;;;;;;5.13;2.20;;;6.90;91.30;6.40;100341.00;;;;5010703;27;92887;-71
2022/01/30 09:40:17;;;;;;;10.67;1.93;;;6.50;91.70;6.40;100349.00;;;;5012538;27;92046;-71
2022/01/30 09:42:45;;;;;;;4.23;1.43;;;6.50;91.90;6.40;100344.00;;;;5010053;27;93076;-71
2022/01/30 09:45:13;;;;;;;7.37;2.20;;;6.50;91.30;6.40;100357.00;;;;5010736;27;93021;-72
2022/01/30 09:47:40;;;;;;;8.53;1.90;;;6.50;91.90;6.40;100342.00;;;;5010382;27;93668;-70
2022/01/30 09:50:09;;;;;;;11.30;1.97;;;6.50;91.10;6.40;100374.00;;;;5011192;27;92832;-70
2022/01/30 09:52:36;;;;;;;4.00;2.07;;;6.50;91.50;6.40;100350.00;;;;5010948;27;93999;-72
2022/01/30 09:55:04;;;;;;;3.23;1.37;;;6.40;91.60;6.30;100356.00;;;;4991999;27;92994;-72
2022/01/30 09:57:30;;;;;;;5.13;1.83;;;6.40;91.90;6.30;100363.00;;;;5011225;27;92994;-71
2022/01/30 09:59:56;;;;;;;8.13;2.07;;;6.50;91.80;6.30;100356.00;;;;5010156;27;109064;-71
2022/01/30 10:02:25;;;;;;;12.23;2.20;;;6.40;93.00;6.30;100372.00;;;;5002103;27;117926;-71
2022/01/30 10:04:52;;;;;;;13.00;2.40;;;6.40;92.90;6.30;100386.00;;;;5011754;27;92791;-71
2022/01/30 10:07:21;;;;;;;6.27;1.83;;;6.40;92.60;6.20;100370.00;;;;5011096;27;93226;-71
2022/01/30 10:09:49;;;;;;;6.50;1.47;;;6.30;92.80;6.20;100408.00;;;;5010965;27;92726;-70
2022/01/30 10:12:19;;;;;;;4.70;2.20;;;6.30;93.00;6.20;100383.00;;;;5002153;27;94000;-71
2022/01/30 10:15:00;;;;;;;3.27;1.13;;;6.30;93.90;6.20;100389.00;;;;4991656;27;94550;-69
2022/01/30 10:17:33;;;;;;;10.00;1.73;;;6.30;93.70;6.20;100369.00;;;;5005718;27;92961;-70
2022/01/30 10:20:13;;;;;;;12.90;2.40;;;6.30;94.10;6.20;100382.00;;;;5011281;27;92816;-70
2022/01/30 10:23:01;;;;;;;5.33;2.17;;;6.30;94.30;6.20;100380.00;;;;4998076;27;95110;-70
2022/01/30 10:25:33;;;;;;;10.23;2.37;;;6.20;95.00;6.20;100368.00;;;;4990774;27;93127;-70
2022/01/30 10:28:12;;;;;;;5.07;1.83;;;6.30;94.90;6.20;100399.00;;;;5010238;27;93117;-71
2022/01/30 10:30:54;;;;;;;7.77;2.17;;;6.30;95.30;6.20;100377.00;;;;4992600;27;92061;-70
2022/01/30 10:33:41;;;;;;;5.23;2.00;;;6.30;94.90;6.20;100396.00;;;;4988395;27;92757;-70
2022/01/30 10:36:09;;;;;;;10.70;2.37;;;6.30;94.90;6.20;100395.00;;;;5003232;27;93311;-71
2022/01/30 10:38:46;;;;;;;11.03;2.23;;;6.30;95.60;6.20;100415.00;;;;5009477;27;93799;-70
2022/01/30 10:44:03;;;;;;;9.67;2.27;;;5.90;95.00;6.30;100418.00;;;;5001207;27;93384;-70
2022/01/30 10:46:38;;;;;;;5.03;2.77;;;6.40;94.70;6.30;100423.00;;;;4991535;27;93449;-71
2022/01/30 10:49:12;;;;;;;6.83;2.33;;;6.40;95.20;6.30;100410.00;;;;5009747;27;92853;-70
2022/01/30 10:51:38;;;;;;;5.80;1.67;;;6.40;95.20;6.30;100401.00;;;;4971695;27;93091;-70
2022/01/30 10:54:10;;;;;;;6.97;2.60;;;6.40;94.60;6.30;100407.00;;;;4999178;27;93245;-70
2022/01/30 10:56:37;;;;;;;7.77;2.83;;;6.40;95.00;6.30;100408.00;;;;5010499;27;92863;-69
2022/01/30 10:59:21;;;;;;;10.63;2.67;;;6.40;95.10;6.30;100421.00;;;;5009464;27;93074;-70
2022/01/30 11:01:50;;;;;;;9.17;3.00;;;6.00;94.60;6.30;100418.00;;;;4988318;28;92887;-70
2022/01/30 11:04:24;;;;;;;13.03;3.43;;;6.40;95.10;6.30;100408.00;;;;5004800;27;95180;-70
2022/01/30 11:06:50;;;;;;;6.97;2.07;;;6.40;95.40;6.30;100445.00;;;;5008965;27;95003;-70
2022/01/30 11:09:23;;;;;;;12.37;2.63;;;6.40;94.80;6.30;100447.00;;;;5009438;27;93299;-69
2022/01/30 11:11:58;;;;;;;8.97;2.63;;;6.40;95.00;6.30;100438.00;;;;5005204;27;92947;-70
2022/01/30 11:14:36;;;;;;;13.20;2.23;;;6.50;95.30;6.30;100427.00;;;;5008047;27;93176;-70
2022/01/30 11:17:07;;;;;;;13.07;3.40;;;6.40;94.70;6.30;100444.00;;;;5009503;27;93511;-70
2022/01/30 11:19:42;;;;;;;13.27;3.07;;;6.40;94.60;6.30;100437.00;;;;5009616;27;93148;-69
2022/01/30 11:22:11;;;;;;;14.90;2.20;;;6.40;94.40;6.30;100445.00;;;;4974975;27;92015;-70
2022/01/30 11:24:48;;;;;;;6.13;2.23;;;6.40;94.00;6.30;100467.00;;;;5007691;27;93316;-70
2022/01/30 11:27:21;;;;;;;13.37;2.60;;;6.50;94.30;6.30;100460.00;;;;4991048;27;93226;-70
2022/01/30 11:29:49;;;;;;;4.67;2.03;;;6.40;93.90;6.30;100438.00;;;;5009360;27;93888;-70
2022/01/30 11:32:21;;;;;;;9.70;2.17;;;6.50;93.80;6.30;100447.00;;;;4991026;27;93032;-71
2022/01/30 11:34:47;;;;;;;8.73;2.47;;;6.50;93.20;6.30;100466.00;;;;5008760;27;93638;-70
2022/01/30 11:37:16;;;;;;;10.03;3.13;;;6.50;93.20;6.40;100470.00;;;;5009579;27;93056;-70
2022/01/30 11:39:52;;;;;;;9.87;2.63;;;6.50;94.00;6.30;100483.00;;;;5008910;27;93123;-72
2022/01/30 11:42:25;;;;;;;10.83;2.57;;;6.50;95.00;6.20;100498.00;;;;5000791;27;93075;-71
2022/01/30 11:45:09;;;;;;;5.83;1.93;;;6.40;95.70;6.20;100501.00;;;;5008777;27;93910;-69
2022/01/30 11:48:00;;;;;;;10.07;2.33;;;6.40;96.50;6.10;100511.00;;;;5009164;27;95550;-68